X  Close Metar Aviation Weather Data     EGLF Farnborough Airport
Temperature
5°C Temperature
3°C Dewpoint
87% Humidity



Wind
14 MPH
23 KM/H
6 M/S
12 KTS



240°
WSW
Current Conditions

Mostly Cloudy Mostly Cloudy
Pressure 984.08 (hPa) - 29.06 (inHg)
Visibility 6 (mile) - 9.7 (km)
Airport
Airport-code EGLF

Location: Farnborough Airport
Distance: 5 (mi)

Metar:
EGLF 230420Z AUTO 24012KT 9999 BKN021/// 05/03 Q0984

Time: 23-02-2024 04:20 GMT